Time;durP1;ratioP1;P1;durP2;ratioP2;P2;SDS_P1;SDS_P2;PMS_P1;PMS_P2;Temp;Humidity;BMP_temperature;BMP_pressure;BME280_temperature;BME280_humidity;BME280_pressure;Samples;Min_cycle;Max_cycle;Signal;HPM_P1;HPM_P2
2023/04/23 00:01:04;;;;;;;131.10;71.47;;;8.20;99.90;;;;;;4985674;28;37533;-76
2023/04/23 00:03:34;;;;;;;115.53;65.23;;;8.20;99.90;;;;;;4993695;28;38360;-76
2023/04/23 00:06:10;;;;;;;118.73;69.17;;;8.20;99.90;;;;;;5012435;28;39247;-77
2023/04/23 00:08:42;;;;;;;108.63;65.00;;;8.30;99.90;;;;;;4981632;28;47354;-76
2023/04/23 00:11:09;;;;;;;109.15;63.45;;;8.30;99.90;;;;;;4982586;28;38674;-76
2023/04/23 00:13:36;;;;;;;121.37;69.17;;;8.30;99.90;;;;;;4987081;28;37709;-76
2023/04/23 00:16:02;;;;;;;100.87;61.47;;;8.30;99.90;;;;;;5006020;28;38537;-76
2023/04/23 00:18:28;;;;;;;97.13;60.47;;;8.30;99.90;;;;;;4991041;28;37233;-77
2023/04/23 00:20:54;;;;;;;127.33;67.90;;;8.20;99.90;;;;;;5010631;28;39248;-76
2023/04/23 00:23:20;;;;;;;111.17;66.57;;;8.20;99.90;;;;;;4987836;28;37021;-76
2023/04/23 00:25:46;;;;;;;121.30;66.07;;;8.20;99.90;;;;;;5001151;28;38939;-77
2023/04/23 00:28:12;;;;;;;107.60;64.13;;;8.20;99.90;;;;;;5004466;28;37233;-77
2023/04/23 00:30:39;;;;;;;106.17;63.73;;;8.30;99.90;;;;;;5013523;28;38926;-77
2023/04/23 00:33:05;;;;;;;102.00;62.60;;;8.30;99.90;;;;;;5010290;28;38835;-76
2023/04/23 00:35:31;;;;;;;113.10;67.53;;;8.30;99.90;;;;;;4995999;28;37082;-76
2023/04/23 00:37:57;;;;;;;114.50;66.87;;;8.30;99.90;;;;;;5005663;28;37556;-77
2023/04/23 00:40:23;;;;;;;114.33;66.27;;;8.40;99.90;;;;;;4990629;28;37697;-77
2023/04/23 00:42:52;;;;;;;115.97;65.87;;;8.40;99.90;;;;;;4997796;28;37447;-76
2023/04/23 00:45:19;;;;;;;122.07;69.30;;;8.50;99.90;;;;;;5005478;28;38745;-76
2023/04/23 00:47:45;;;;;;;122.50;69.50;;;8.50;99.90;;;;;;4996573;28;36604;-76
2023/04/23 00:50:12;;;;;;;104.10;65.33;;;8.50;99.90;;;;;;4995202;28;37721;-77
2023/04/23 00:52:39;;;;;;;116.80;66.17;;;8.50;99.90;;;;;;4996381;28;37295;-76
2023/04/23 00:55:08;;;;;;;118.70;68.90;;;8.60;99.90;;;;;;4998537;28;37573;-76
2023/04/23 00:57:36;;;;;;;106.77;65.00;;;8.60;99.90;;;;;;4988003;28;36420;-77
2023/04/23 01:00:05;;;;;;;104.23;64.80;;;8.60;99.90;;;;;;5000899;28;37488;-77
2023/04/23 01:02:33;;;;;;;105.10;64.50;;;8.70;99.90;;;;;;5357765;23;37984;-71
2023/04/23 01:05:02;;;;;;;118.87;67.90;;;8.70;99.90;;;;;;4976620;28;39472;-73
2023/04/23 01:07:28;;;;;;;108.87;66.53;;;8.80;99.90;;;;;;4955653;28;36041;-74
2023/04/23 01:09:55;;;;;;;101.33;62.37;;;8.80;99.90;;;;;;4967718;28;37951;-74
2023/04/23 01:12:22;;;;;;;95.17;61.90;;;8.90;99.90;;;;;;4974210;28;38651;-73
2023/04/23 01:14:48;;;;;;;99.53;60.77;;;8.80;99.90;;;;;;4986990;28;38940;-73
2023/04/23 01:17:15;;;;;;;96.73;59.13;;;8.90;99.90;;;;;;4970649;28;37315;-74
2023/04/23 01:19:41;;;;;;;97.03;59.97;;;8.90;99.90;;;;;;4988805;28;38359;-72
2023/04/23 01:22:11;;;;;;;91.20;56.97;;;8.90;99.90;;;;;;4986016;28;37821;-72
2023/04/23 01:24:38;;;;;;;87.37;57.13;;;9.00;99.90;;;;;;4969704;28;38257;-72
2023/04/23 01:27:05;;;;;;;86.53;55.70;;;9.00;99.90;;;;;;4967845;28;36213;-72
2023/04/23 01:29:31;;;;;;;83.87;52.77;;;9.00;99.90;;;;;;4971223;28;38051;-72
2023/04/23 01:31:59;;;;;;;77.10;51.27;;;9.10;99.90;;;;;;4989571;28;37861;-73
2023/04/23 01:34:25;;;;;;;74.80;50.20;;;9.10;99.90;;;;;;4989137;28;38007;-73
2023/04/23 01:36:53;;;;;;;77.10;49.87;;;9.20;99.90;;;;;;4959229;28;36873;-74
2023/04/23 01:39:19;;;;;;;75.75;47.78;;;9.20;99.90;;;;;;4968074;28;37638;-74
2023/04/23 01:41:46;;;;;;;70.23;48.33;;;9.20;99.90;;;;;;4980712;28;39676;-74
2023/04/23 01:44:12;;;;;;;66.03;47.20;;;9.20;99.90;;;;;;4989177;28;37980;-74
2023/04/23 01:46:38;;;;;;;63.17;44.97;;;9.20;99.90;;;;;;4990553;28;36792;-74
2023/04/23 01:49:05;;;;;;;65.30;44.33;;;9.20;99.90;;;;;;4987391;28;40085;-74
2023/04/23 01:51:31;;;;;;;61.77;43.63;;;9.20;99.90;;;;;;4971306;28;37773;-74
2023/04/23 01:53:57;;;;;;;66.87;46.37;;;9.20;99.90;;;;;;4971032;28;37427;-74
2023/04/23 01:56:32;;;;;;;66.37;46.43;;;9.20;99.90;;;;;;4970353;28;37208;-74
2023/04/23 01:58:58;;;;;;;62.30;44.00;;;9.20;99.90;;;;;;4991781;28;38531;-73
2023/04/23 02:01:24;;;;;;;59.90;42.53;;;9.20;99.90;;;;;;4988886;28;38941;-75
2023/04/23 02:03:51;;;;;;;57.83;41.70;;;9.20;99.90;;;;;;4972031;28;38345;-74
2023/04/23 02:06:17;;;;;;;60.70;42.47;;;9.20;99.90;;;;;;4970880;28;38199;-74
2023/04/23 02:08:43;;;;;;;58.13;42.93;;;9.20;99.90;;;;;;4995992;28;38445;-74
2023/04/23 02:11:09;;;;;;;62.30;43.23;;;9.10;99.90;;;;;;4973374;28;36942;-74
2023/04/23 02:13:35;;;;;;;56.80;41.10;;;9.20;99.90;;;;;;4976830;28;38021;-74
2023/04/23 02:16:01;;;;;;;55.67;40.13;;;9.20;99.90;;;;;;4983802;28;35443;-75
2023/04/23 02:18:27;;;;;;;56.37;41.20;;;9.10;99.90;;;;;;4970351;28;38857;-74
2023/04/23 02:20:54;;;;;;;56.13;41.00;;;9.20;99.90;;;;;;4986914;28;38508;-74
2023/04/23 02:23:20;;;;;;;56.13;39.93;;;9.20;99.90;;;;;;4969713;28;41256;-73
2023/04/23 02:25:46;;;;;;;52.27;38.63;;;9.20;99.90;;;;;;4977918;28;36565;-73
2023/04/23 02:28:12;;;;;;;57.53;40.70;;;9.20;99.90;;;;;;4971225;28;37611;-75
2023/04/23 02:30:44;;;;;;;53.40;38.57;;;9.20;99.90;;;;;;4985084;28;38565;-74
2023/04/23 02:33:11;;;;;;;52.40;38.13;;;9.30;99.90;;;;;;4994618;28;38050;-73
2023/04/23 02:35:37;;;;;;;53.33;38.87;;;9.30;99.90;;;;;;4985884;28;37549;-72
2023/04/23 02:38:03;;;;;;;52.57;40.07;;;9.30;99.90;;;;;;4993690;28;39273;-73
2023/04/23 02:40:30;;;;;;;48.97;38.13;;;9.30;99.90;;;;;;4971035;28;37772;-73
2023/04/23 02:42:56;;;;;;;52.57;38.40;;;9.30;99.90;;;;;;4970022;28;37959;-73
2023/04/23 02:45:22;;;;;;;50.70;37.23;;;9.30;99.90;;;;;;4969105;28;35986;-73
2023/04/23 02:47:48;;;;;;;53.47;37.53;;;9.30;99.90;;;;;;4988798;28;38376;-73
2023/04/23 02:50:15;;;;;;;53.03;39.43;;;9.30;99.90;;;;;;4957811;28;39111;-73
2023/04/23 02:52:41;;;;;;;51.50;37.77;;;9.30;99.90;;;;;;4975044;28;36922;-73
2023/04/23 02:55:08;;;;;;;51.57;38.07;;;9.30;99.90;;;;;;4970268;28;37265;-74
2023/04/23 02:57:34;;;;;;;52.60;38.07;;;9.30;99.90;;;;;;4990599;28;38960;-73
2023/04/23 03:00:00;;;;;;;51.60;38.73;;;9.30;99.90;;;;;;4972054;28;37793;-73
2023/04/23 03:02:27;;;;;;;53.57;39.70;;;9.30;99.90;;;;;;4997036;28;38091;-73
2023/04/23 03:04:53;;;;;;;54.13;40.17;;;9.30;99.90;;;;;;4969647;28;36413;-73
2023/04/23 03:07:19;;;;;;;52.70;38.77;;;9.30;99.90;;;;;;4990515;28;39534;-73
2023/04/23 03:09:45;;;;;;;59.47;39.33;;;9.30;99.90;;;;;;4972934;28;38584;-74
2023/04/23 03:12:11;;;;;;;55.73;39.67;;;9.30;99.90;;;;;;4966552;28;37683;-73
2023/04/23 03:14:37;;;;;;;51.27;37.63;;;9.30;99.90;;;;;;4968504;28;36620;-73
2023/04/23 03:17:03;;;;;;;54.37;38.30;;;9.30;99.90;;;;;;4966930;28;38104;-74
2023/04/23 03:19:30;;;;;;;54.83;38.47;;;9.30;99.90;;;;;;4968854;28;38549;-73
2023/04/23 03:21:56;;;;;;;55.03;39.33;;;9.20;99.90;;;;;;4984592;28;38861;-73
2023/04/23 03:24:22;;;;;;;52.00;39.87;;;9.20;99.90;;;;;;4967986;28;36053;-74
2023/04/23 03:26:48;;;;;;;51.03;39.67;;;9.20;99.90;;;;;;4986178;28;38950;-73
2023/04/23 03:29:14;;;;;;;51.77;38.77;;;9.20;99.90;;;;;;4968497;28;38693;-73
2023/04/23 03:31:40;;;;;;;48.27;37.33;;;9.10;99.90;;;;;;4967348;28;37098;-73
2023/04/23 03:34:06;;;;;;;52.50;40.60;;;9.10;99.90;;;;;;4988133;28;38252;-73
2023/04/23 03:36:32;;;;;;;49.67;38.00;;;9.10;99.90;;;;;;4973151;28;39234;-73
2023/04/23 03:38:58;;;;;;;56.67;39.57;;;9.10;99.90;;;;;;4969440;28;37265;-73
2023/04/23 03:41:24;;;;;;;59.50;41.10;;;9.10;99.90;;;;;;4987372;28;38243;-73
2023/04/23 03:43:50;;;;;;;53.53;38.77;;;9.10;99.90;;;;;;4967882;28;36220;-73
2023/04/23 03:46:16;;;;;;;52.37;39.07;;;9.10;99.90;;;;;;4960241;28;37574;-73
2023/04/23 03:48:43;;;;;;;49.87;37.87;;;9.10;99.90;;;;;;4988681;28;39720;-74
2023/04/23 03:51:09;;;;;;;60.97;41.00;;;9.10;99.90;;;;;;4966827;28;37851;-73
2023/04/23 03:53:35;;;;;;;54.03;38.70;;;9.10;99.90;;;;;;4967144;28;37241;-73
2023/04/23 03:56:01;;;;;;;54.43;40.13;;;9.10;99.90;;;;;;4986804;28;38839;-73
2023/04/23 03:58:27;;;;;;;48.57;37.73;;;9.10;99.90;;;;;;4964623;28;38231;-73
2023/04/23 04:00:53;;;;;;;53.70;38.87;;;9.10;99.90;;;;;;4984059;28;39064;-73
2023/04/23 04:03:20;;;;;;;57.33;41.27;;;9.10;99.90;;;;;;4940135;28;1191246;-73
2023/04/23 04:05:46;;;;;;;56.70;40.10;;;9.10;99.90;;;;;;4966473;28;37615;-73
2023/04/23 04:08:12;;;;;;;51.30;38.03;;;9.10;99.90;;;;;;4982296;28;38207;-73
2023/04/23 04:10:39;;;;;;;49.67;37.40;;;9.10;99.90;;;;;;4961942;28;37126;-72
2023/04/23 04:13:06;;;;;;;53.43;39.93;;;9.10;99.90;;;;;;4981118;28;37390;-73
2023/04/23 04:15:32;;;;;;;55.13;38.70;;;9.10;99.90;;;;;;4978989;28;38878;-73
2023/04/23 04:17:59;;;;;;;55.77;39.73;;;9.10;99.90;;;;;;4964808;28;37624;-73
2023/04/23 04:20:27;;;;;;;50.50;38.57;;;9.20;99.90;;;;;;4981200;28;39542;-73
2023/04/23 04:22:55;;;;;;;53.80;38.57;;;9.10;99.90;;;;;;4985842;28;38724;-73
2023/04/23 04:25:21;;;;;;;52.63;38.20;;;9.10;99.90;;;;;;4968249;28;38141;-73
2023/04/23 04:27:48;;;;;;;48.30;37.90;;;9.10;99.90;;;;;;4979803;28;37082;-73
2023/04/23 04:30:14;;;;;;;53.80;38.17;;;9.10;99.90;;;;;;4981384;28;38103;-73
2023/04/23 04:32:41;;;;;;;52.07;37.60;;;9.10;99.90;;;;;;4965638;28;37884;-73
2023/04/23 04:35:07;;;;;;;49.10;36.63;;;9.10;99.90;;;;;;4982651;28;39007;-73
2023/04/23 04:37:35;;;;;;;51.37;37.30;;;9.00;99.90;;;;;;4972429;28;36822;-73
2023/04/23 04:40:01;;;;;;;54.23;39.93;;;9.10;99.90;;;;;;4961972;28;37223;-73
2023/04/23 04:42:27;;;;;;;54.40;37.67;;;9.00;99.90;;;;;;4984608;28;38348;-73
2023/04/23 04:44:53;;;;;;;50.20;38.03;;;8.90;99.90;;;;;;4968398;28;39569;-73
2023/04/23 04:47:19;;;;;;;50.97;38.97;;;8.90;99.90;;;;;;4973211;28;37599;-73
2023/04/23 04:49:45;;;;;;;50.40;36.87;;;8.90;99.90;;;;;;4968946;28;37056;-73
2023/04/23 04:52:11;;;;;;;56.07;39.93;;;8.90;99.90;;;;;;4983772;28;36235;-73
2023/04/23 04:54:38;;;;;;;50.87;37.27;;;8.80;99.90;;;;;;4973718;28;37829;-73
2023/04/23 04:57:05;;;;;;;53.57;39.60;;;8.80;99.90;;;;;;4968702;28;38974;-73
2023/04/23 04:59:31;;;;;;;51.97;38.47;;;8.80;99.90;;;;;;4990188;28;38120;-73
2023/04/23 05:01:58;;;;;;;55.93;40.17;;;8.70;99.90;;;;;;4977087;28;37127;-74
2023/04/23 05:04:24;;;;;;;58.60;40.77;;;8.70;99.90;;;;;;5010700;28;39515;-74
2023/04/23 05:06:50;;;;;;;57.20;40.93;;;8.70;99.90;;;;;;5011634;28;39210;-73
2023/04/23 05:09:16;;;;;;;59.40;40.83;;;8.70;99.90;;;;;;4986594;28;36594;-73
2023/04/23 05:11:42;;;;;;;57.47;39.37;;;8.60;99.90;;;;;;4984437;28;35780;-73
2023/04/23 05:14:09;;;;;;;56.77;40.03;;;8.60;99.90;;;;;;5004020;28;38587;-78
2023/04/23 05:16:35;;;;;;;50.87;37.97;;;8.60;99.90;;;;;;4997721;28;37086;-79
2023/04/23 05:19:01;;;;;;;53.73;37.87;;;8.60;99.90;;;;;;4997989;28;37264;-79
2023/04/23 05:21:27;;;;;;;56.93;39.57;;;8.60;99.90;;;;;;5013329;28;37286;-78
2023/04/23 05:23:54;;;;;;;59.17;40.93;;;8.50;99.90;;;;;;4994392;28;37608;-78
2023/04/23 05:26:20;;;;;;;52.37;37.40;;;8.50;99.90;;;;;;4997865;28;37811;-78
2023/04/23 05:28:46;;;;;;;60.67;41.70;;;8.60;99.90;;;;;;4997962;28;37253;-78
2023/04/23 05:31:12;;;;;;;57.93;40.17;;;8.60;99.90;;;;;;5007716;28;37961;-79
2023/04/23 05:33:39;;;;;;;58.37;40.20;;;8.60;99.90;;;;;;4994257;28;37705;-79
2023/04/23 05:36:05;;;;;;;55.87;39.80;;;8.60;99.90;;;;;;4989189;28;39947;-78
2023/04/23 05:38:32;;;;;;;62.53;42.13;;;8.70;99.90;;;;;;4986000;28;37226;-79
2023/04/23 05:40:58;;;;;;;54.60;38.70;;;8.70;99.90;;;;;;4987045;28;36410;-79
2023/04/23 05:43:24;;;;;;;54.03;39.30;;;8.80;99.90;;;;;;4991371;28;37135;-78
2023/04/23 05:45:50;;;;;;;53.77;39.07;;;8.80;99.90;;;;;;5009935;28;38588;-78
2023/04/23 05:48:16;;;;;;;56.93;39.60;;;8.90;99.90;;;;;;4981333;28;38297;-78
2023/04/23 05:50:42;;;;;;;53.37;38.33;;;9.00;99.90;;;;;;4982604;28;36445;-78
2023/04/23 05:53:08;;;;;;;48.77;36.27;;;9.00;99.90;;;;;;5008488;28;38540;-79
2023/04/23 05:55:35;;;;;;;48.77;35.73;;;9.10;99.90;;;;;;5004735;28;39006;-78
2023/04/23 05:58:01;;;;;;;43.13;34.63;;;9.20;99.90;;;;;;4992642;28;37029;-78
2023/04/23 06:00:27;;;;;;;46.97;32.97;;;9.20;99.90;;;;;;4999976;28;48938;-79
2023/04/23 06:02:54;;;;;;;45.93;32.47;;;9.40;99.90;;;;;;5008076;28;38702;-78
2023/04/23 06:05:20;;;;;;;38.77;29.47;;;9.50;99.90;;;;;;4989244;28;39139;-78
2023/04/23 06:07:46;;;;;;;42.73;30.27;;;9.70;99.90;;;;;;4985793;28;36674;-79
2023/04/23 06:10:12;;;;;;;39.13;27.63;;;9.80;99.90;;;;;;5004268;28;37821;-79
2023/04/23 06:12:40;;;;;;;36.50;26.47;;;9.90;99.90;;;;;;4985476;28;38024;-79
2023/04/23 06:15:07;;;;;;;32.40;25.23;;;10.10;99.90;;;;;;5006447;28;38001;-79
2023/04/23 06:17:34;;;;;;;32.83;25.63;;;10.20;99.90;;;;;;4979334;28;38377;-79
2023/04/23 06:20:01;;;;;;;29.80;23.83;;;10.20;99.90;;;;;;4986617;28;37218;-81
2023/04/23 06:22:27;;;;;;;32.03;22.70;;;10.30;99.90;;;;;;5004374;28;39796;-78
2023/04/23 06:24:53;;;;;;;33.80;23.67;;;10.40;99.90;;;;;;5011298;28;38191;-77
2023/04/23 06:27:19;;;;;;;28.67;21.67;;;10.40;99.90;;;;;;4993321;28;37666;-77
2023/04/23 06:29:45;;;;;;;29.70;20.23;;;10.60;99.90;;;;;;4984806;28;36263;-77
2023/04/23 06:32:11;;;;;;;27.38;19.42;;;10.70;99.90;;;;;;4991819;28;38834;-79
2023/04/23 06:34:38;;;;;;;22.85;18.10;;;10.80;99.90;;;;;;5007091;28;39468;-78
2023/04/23 06:37:04;;;;;;;23.35;17.77;;;10.80;99.90;;;;;;5009422;28;39257;-78
2023/04/23 06:39:30;;;;;;;27.45;17.42;;;10.90;99.90;;;;;;5007959;28;38236;-77
2023/04/23 06:41:57;;;;;;;28.40;18.23;;;11.00;99.90;;;;;;5007694;28;38799;-80
2023/04/23 06:44:26;;;;;;;26.60;17.90;;;11.10;99.90;;;;;;4986978;28;38305;-79
2023/04/23 06:46:52;;;;;;;23.90;17.50;;;11.10;99.90;;;;;;5011894;28;38263;-77
2023/04/23 06:49:18;;;;;;;22.42;16.55;;;11.20;99.90;;;;;;5004497;28;38110;-77
2023/04/23 06:51:44;;;;;;;23.80;17.00;;;11.30;99.90;;;;;;4995414;28;38821;-78
2023/04/23 06:54:10;;;;;;;23.45;16.85;;;11.30;99.90;;;;;;4988541;28;37387;-77
2023/04/23 06:56:36;;;;;;;27.08;15.75;;;11.40;99.90;;;;;;4982713;28;37003;-78
2023/04/23 06:59:03;;;;;;;21.70;14.32;;;11.40;99.90;;;;;;5005922;28;37527;-77
2023/04/23 07:01:29;;;;;;;19.67;14.80;;;11.50;99.90;;;;;;4989957;28;38100;-78
2023/04/23 07:03:55;;;;;;;23.50;14.55;;;11.60;99.90;;;;;;4989213;28;36378;-77
2023/04/23 07:06:21;;;;;;;22.42;14.00;;;11.60;99.90;;;;;;5007476;28;38247;-77
2023/04/23 07:08:48;;;;;;;23.30;13.10;;;11.70;99.90;;;;;;4990636;28;37466;-77
2023/04/23 07:11:14;;;;;;;20.25;12.85;;;11.70;99.90;;;;;;4989265;28;39294;-76
2023/04/23 07:13:41;;;;;;;18.40;13.00;;;11.80;99.90;;;;;;4986048;28;37136;-78
2023/04/23 07:16:07;;;;;;;19.27;12.38;;;11.90;99.90;;;;;;4989779;28;38118;-77
2023/04/23 07:18:33;;;;;;;18.50;12.10;;;12.00;99.90;;;;;;4989803;28;37687;-77
2023/04/23 07:20:59;;;;;;;16.83;11.75;;;12.20;99.90;;;;;;4985625;28;37517;-76
2023/04/23 07:23:25;;;;;;;17.95;11.23;;;12.20;99.90;;;;;;4996379;28;38042;-77
2023/04/23 07:25:51;;;;;;;17.48;11.32;;;12.40;99.90;;;;;;4983202;28;37234;-77
2023/04/23 07:28:17;;;;;;;15.43;10.57;;;12.50;99.90;;;;;;4988157;28;38405;-78
2023/04/23 07:30:43;;;;;;;21.77;11.48;;;12.40;99.90;;;;;;4986284;28;38782;-77
2023/04/23 07:33:09;;;;;;;16.10;10.85;;;12.40;99.90;;;;;;4985161;28;37486;-78
2023/04/23 07:35:35;;;;;;;22.75;9.93;;;12.50;99.90;;;;;;5001439;28;38042;-77
2023/04/23 07:38:03;;;;;;;18.73;9.90;;;12.60;99.90;;;;;;4999182;28;37577;-78
2023/04/23 07:40:29;;;;;;;22.20;10.45;;;12.80;99.90;;;;;;5005941;28;39675;-77
2023/04/23 07:42:57;;;;;;;18.02;9.48;;;12.90;99.90;;;;;;4998672;28;38396;-77
2023/04/23 07:45:24;;;;;;;18.88;10.27;;;12.90;99.90;;;;;;4980095;28;37236;-77
2023/04/23 07:47:50;;;;;;;18.40;9.18;;;13.00;99.90;;;;;;4998800;28;37951;-78
2023/04/23 07:50:16;;;;;;;21.10;8.98;;;13.20;99.90;;;;;;4983499;28;38550;-78
2023/04/23 07:52:42;;;;;;;17.73;8.32;;;13.30;99.90;;;;;;4985382;28;37792;-78
2023/04/23 07:55:08;;;;;;;15.90;8.88;;;13.40;99.90;;;;;;4981799;28;36957;-77
2023/04/23 07:57:35;;;;;;;18.10;9.20;;;13.40;99.90;;;;;;4989987;28;36833;-78
2023/04/23 08:00:01;;;;;;;18.25;8.00;;;13.70;99.90;;;;;;4988309;28;38750;-78
2023/04/23 08:02:27;;;;;;;18.30;7.47;;;13.80;99.90;;;;;;4964024;28;38127;-78
2023/04/23 08:04:53;;;;;;;16.05;8.10;;;13.60;99.90;;;;;;4975640;28;37027;-78
2023/04/23 08:07:19;;;;;;;18.70;8.52;;;13.60;99.90;;;;;;4968736;28;36161;-79
2023/04/23 08:09:45;;;;;;;21.27;8.77;;;13.80;99.90;;;;;;4983474;28;39413;-78
2023/04/23 08:12:11;;;;;;;18.48;7.30;;;14.20;99.90;;;;;;4962480;28;37176;-78
2023/04/23 08:14:38;;;;;;;13.35;7.72;;;13.90;99.90;;;;;;4983823;28;38055;-78
2023/04/23 08:17:04;;;;;;;15.20;8.30;;;13.80;99.90;;;;;;4967582;28;35950;-77
2023/04/23 08:19:32;;;;;;;14.52;7.28;;;13.80;99.90;;;;;;4986988;28;38871;-78
2023/04/23 08:21:59;;;;;;;15.80;7.50;;;13.90;99.90;;;;;;4983520;28;40827;-78
2023/04/23 08:24:26;;;;;;;12.10;7.32;;;14.20;99.90;;;;;;4984840;28;38132;-77
2023/04/23 08:26:53;;;;;;;13.63;6.38;;;14.30;99.90;;;;;;4987709;28;37332;-77
2023/04/23 08:29:19;;;;;;;16.00;6.38;;;14.40;99.90;;;;;;4960852;28;40123;-78
2023/04/23 08:31:45;;;;;;;15.05;6.18;;;14.30;99.90;;;;;;4977441;28;37414;-79
2023/04/23 08:34:13;;;;;;;20.10;6.82;;;14.00;99.90;;;;;;4966378;28;38283;-78
2023/04/23 08:36:39;;;;;;;15.75;6.63;;;14.10;99.90;;;;;;4985132;28;35819;-78
2023/04/23 08:39:05;;;;;;;17.15;6.03;;;14.20;99.90;;;;;;4965127;28;38153;-77
2023/04/23 08:41:37;;;;;;;18.27;6.45;;;14.10;99.90;;;;;;4970112;28;38035;-77
2023/04/23 08:44:22;;;;;;;14.48;6.05;;;14.40;99.90;;;;;;4974868;28;38660;-79
2023/04/23 08:46:48;;;;;;;14.80;5.45;;;14.50;99.90;;;;;;4983804;28;35951;-78
2023/04/23 08:49:16;;;;;;;14.13;5.30;;;14.70;99.90;;;;;;4981093;28;38833;-78
2023/04/23 08:51:52;;;;;;;17.40;5.43;;;14.90;99.90;;;;;;4961673;28;37510;-77
2023/04/23 08:54:25;;;;;;;14.73;5.57;;;15.20;99.90;;;;;;4983110;28;37959;-77
2023/04/23 08:56:57;;;;;;;11.57;4.78;;;15.00;99.90;;;;;;4961602;28;36141;-76
2023/04/23 08:59:25;;;;;;;12.40;4.47;;;14.70;99.90;;;;;;4988373;28;39088;-77
2023/04/23 09:01:52;;;;;;;9.82;4.05;;;14.80;99.90;;;;;;4985338;28;39402;-77
2023/04/23 09:04:19;;;;;;;13.23;4.20;;;14.90;99.90;;;;;;4982848;28;35684;-77
2023/04/23 09:06:45;;;;;;;13.25;4.40;;;14.90;99.90;;;;;;4982484;28;36354;-77
2023/04/23 09:09:16;;;;;;;9.75;4.22;;;14.90;99.90;;;;;;4975414;28;38794;-77
2023/04/23 09:11:43;;;;;;;10.90;4.18;;;14.90;99.90;;;;;;5010759;28;39576;-76
2023/04/23 09:14:11;;;;;;;10.02;4.03;;;15.00;99.90;;;;;;4992687;28;37883;-78
2023/04/23 09:16:39;;;;;;;12.05;4.10;;;15.00;99.90;;;;;;4986545;28;36522;-78
2023/04/23 09:19:09;;;;;;;14.25;4.18;;;15.10;99.90;;;;;;4988542;28;37660;-77
2023/04/23 09:21:37;;;;;;;9.20;3.60;;;14.90;99.90;;;;;;4984347;28;37700;-76
2023/04/23 09:24:10;;;;;;;12.93;4.03;;;15.20;99.90;;;;;;4986234;28;36986;-78
2023/04/23 09:26:45;;;;;;;15.60;4.82;;;15.50;99.90;;;;;;4988894;28;37637;-80
2023/04/23 09:29:22;;;;;;;9.80;3.83;;;15.70;99.90;;;;;;4976618;28;37754;-78
2023/04/23 09:31:51;;;;;;;11.35;4.10;;;15.40;99.90;;;;;;4994936;28;38509;-77
2023/04/23 09:34:24;;;;;;;9.82;3.35;;;15.50;99.90;;;;;;5006650;28;38019;-78
2023/04/23 09:36:52;;;;;;;10.95;3.63;;;15.60;99.90;;;;;;5011698;28;37080;-78
2023/04/23 09:39:21;;;;;;;11.02;3.38;;;15.80;99.90;;;;;;4992588;28;37348;-78
2023/04/23 09:41:47;;;;;;;10.68;3.20;;;15.90;99.90;;;;;;5000655;28;38418;-78
2023/04/23 09:44:25;;;;;;;14.23;3.55;;;15.80;99.90;;;;;;4995554;28;37245;-77
2023/04/23 09:46:51;;;;;;;13.23;4.05;;;15.60;99.90;;;;;;4990447;28;37519;-78
2023/04/23 09:49:17;;;;;;;13.70;4.25;;;15.60;99.90;;;;;;4992330;28;37804;-77
2023/04/23 09:51:46;;;;;;;13.80;4.03;;;15.70;99.90;;;;;;4986990;28;37665;-77
2023/04/23 09:54:15;;;;;;;15.43;4.55;;;15.70;99.90;;;;;;5004158;28;38379;-77
2023/04/23 09:56:42;;;;;;;11.93;3.75;;;15.60;99.90;;;;;;4990714;28;36352;-78
2023/04/23 09:59:24;;;;;;;10.82;3.90;;;15.80;99.90;;;;;;4994636;28;36572;-77
2023/04/23 10:01:53;;;;;;;13.38;4.13;;;16.20;99.90;;;;;;4993675;28;38838;-77
2023/04/23 10:04:22;;;;;;;11.23;3.55;;;16.10;99.90;;;;;;4998182;28;37591;-77
2023/04/23 10:07:03;;;;;;;17.83;4.32;;;15.80;99.90;;;;;;5017346;28;37882;-77
2023/04/23 10:09:30;;;;;;;14.32;3.95;;;15.80;99.90;;;;;;4994142;28;47097;-77
2023/04/23 10:11:58;;;;;;;8.32;3.92;;;16.00;99.90;;;;;;4989613;28;37674;-77
2023/04/23 10:14:29;;;;;;;10.60;3.60;;;16.10;99.90;;;;;;5008489;28;38143;-77
2023/04/23 10:17:03;;;;;;;14.15;3.85;;;16.30;99.90;;;;;;5001673;28;36298;-77
2023/04/23 10:19:31;;;;;;;10.40;3.45;;;16.40;99.90;;;;;;4978746;28;47325;-78
2023/04/23 10:22:04;;;;;;;11.02;4.25;;;16.40;99.90;;;;;;4982195;28;37723;-77
2023/04/23 10:24:40;;;;;;;7.32;2.97;;;16.10;99.90;;;;;;5010072;28;48676;-77
2023/04/23 10:27:11;;;;;;;13.10;3.47;;;16.10;99.90;;;;;;4979762;28;36296;-78
2023/04/23 10:29:38;;;;;;;11.03;3.07;;;16.10;99.90;;;;;;5019913;28;40715;-77
2023/04/23 10:32:05;;;;;;;12.65;3.47;;;16.60;99.90;;;;;;4992565;28;37315;-77
2023/04/23 10:34:32;;;;;;;7.68;2.58;;;16.90;99.90;;;;;;4990932;28;36807;-77
2023/04/23 10:37:00;;;;;;;9.95;3.13;;;16.50;99.90;;;;;;5009355;28;37248;-78
2023/04/23 10:39:33;;;;;;;11.57;3.08;;;16.50;99.90;;;;;;4994209;28;38042;-77
2023/04/23 10:42:01;;;;;;;8.05;2.28;;;16.60;99.90;;;;;;4991716;28;38788;-77
2023/04/23 10:44:41;;;;;;;9.55;2.47;;;16.70;99.90;;;;;;4984115;28;47488;-79
2023/04/23 10:47:15;;;;;;;7.72;2.38;;;16.70;99.90;;;;;;4994795;28;40029;-78
2023/04/23 10:49:43;;;;;;;9.57;2.53;;;16.50;99.90;;;;;;4998204;28;37653;-78
2023/04/23 10:52:14;;;;;;;6.70;2.00;;;16.40;99.90;;;;;;5001557;28;37513;-78
2023/04/23 10:54:49;;;;;;;10.93;2.10;;;16.50;99.90;;;;;;5024508;28;38060;-78
2023/04/23 10:57:15;;;;;;;9.98;2.42;;;16.60;99.90;;;;;;5006970;28;36499;-78
2023/04/23 10:59:52;;;;;;;10.05;2.40;;;16.40;99.90;;;;;;4984897;28;38742;-78
2023/04/23 11:02:21;;;;;;;7.68;2.03;;;16.30;99.90;;;;;;4992318;28;37215;-78
2023/04/23 11:04:56;;;;;;;8.20;2.40;;;16.20;99.90;;;;;;4981699;28;38167;-78
2023/04/23 11:07:34;;;;;;;8.88;2.20;;;16.20;99.90;;;;;;5006863;28;36909;-78
2023/04/23 11:10:11;;;;;;;5.95;1.63;;;16.40;99.90;;;;;;5009736;28;39968;-79
2023/04/23 11:12:38;;;;;;;7.43;1.50;;;16.20;99.90;;;;;;5009658;28;47521;-77
2023/04/23 11:15:17;;;;;;;8.82;2.30;;;16.10;99.90;;;;;;4995669;28;36836;-78
2023/04/23 11:17:43;;;;;;;8.43;1.88;;;16.20;99.90;;;;;;4999011;28;47396;-78
2023/04/23 11:20:12;;;;;;;7.15;1.98;;;16.50;99.90;;;;;;4990095;28;37557;-77
2023/04/23 11:22:41;;;;;;;7.45;1.80;;;16.70;99.90;;;;;;5013164;28;39291;-78
2023/04/23 11:25:20;;;;;;;8.55;2.08;;;16.70;99.90;;;;;;5007167;28;36491;-78
2023/04/23 11:27:47;;;;;;;6.40;1.75;;;16.60;99.90;;;;;;4994661;28;35749;-78
2023/04/23 11:30:13;;;;;;;6.50;1.80;;;16.90;99.90;;;;;;4994053;28;37576;-78
2023/04/23 11:32:41;;;;;;;6.85;1.80;;;17.10;99.90;;;;;;4988910;28;37567;-76
2023/04/23 11:35:08;;;;;;;8.48;1.80;;;17.10;99.90;;;;;;4999004;28;38342;-76
2023/04/23 11:37:41;;;;;;;5.43;1.52;;;16.90;99.90;;;;;;5016280;28;36961;-76
2023/04/23 11:40:10;;;;;;;6.55;1.42;;;16.80;99.90;;;;;;5007086;28;38804;-76
2023/04/23 11:42:45;;;;;;;5.18;1.60;;;17.00;99.90;;;;;;4991682;28;38282;-78
2023/04/23 11:45:19;;;;;;;10.52;1.60;;;16.90;99.90;;;;;;5008693;28;39314;-78
2023/04/23 11:47:47;;;;;;;5.43;1.40;;;17.00;99.90;;;;;;5009242;28;38008;-76
2023/04/23 11:50:37;;;;;;;9.60;1.67;;;17.30;99.90;;;;;;4990690;28;37718;-77
2023/04/23 11:53:06;;;;;;;8.65;2.13;;;17.20;99.90;;;;;;4991536;28;38234;-77
2023/04/23 11:55:32;;;;;;;8.25;1.70;;;17.70;99.90;;;;;;5012572;28;39379;-77
2023/04/23 11:57:58;;;;;;;5.47;1.58;;;17.90;99.90;;;;;;5013297;28;36991;-77
2023/04/23 12:00:25;;;;;;;6.28;1.63;;;17.30;99.90;;;;;;4989729;28;37704;-76
2023/04/23 12:02:53;;;;;;;5.60;1.70;;;17.30;99.90;;;;;;5002029;28;37448;-76
2023/04/23 12:05:29;;;;;;;5.68;1.63;;;17.20;99.90;;;;;;4991686;28;35912;-76
2023/04/23 12:08:15;;;;;;;8.23;2.28;;;16.80;99.90;;;;;;5010566;28;37073;-76
2023/04/23 12:10:52;;;;;;;8.65;1.75;;;16.60;99.90;;;;;;5006617;28;48095;-78
2023/04/23 12:13:22;;;;;;;6.57;1.85;;;16.60;99.90;;;;;;5007486;28;38918;-78
2023/04/23 12:15:51;;;;;;;10.20;1.92;;;16.60;99.90;;;;;;4995624;28;36844;-78
2023/04/23 12:18:18;;;;;;;7.55;1.77;;;16.70;99.90;;;;;;5007324;28;38098;-77
2023/04/23 12:20:45;;;;;;;7.75;1.85;;;16.40;99.90;;;;;;5005831;28;39558;-78
2023/04/23 12:23:11;;;;;;;5.32;1.63;;;16.00;99.90;;;;;;5004000;28;38531;-78
2023/04/23 12:25:41;;;;;;;8.80;1.67;;;15.70;99.90;;;;;;4977644;28;37308;-77
2023/04/23 12:28:07;;;;;;;5.57;1.55;;;15.00;99.90;;;;;;5000381;28;37293;-77
2023/04/23 12:30:41;;;;;;;7.35;1.23;;;14.70;99.90;;;;;;4994386;28;37461;-79
2023/04/23 12:33:10;;;;;;;5.13;1.17;;;14.20;99.90;;;;;;4986035;28;37369;-79
2023/04/23 12:35:38;;;;;;;3.90;1.10;;;14.10;99.90;;;;;;5007645;28;37974;-78
2023/04/23 12:38:05;;;;;;;3.30;1.00;;;14.20;99.90;;;;;;4996690;28;36019;-78